Time;durP1;ratioP1;P1;durP2;ratioP2;P2;SDS_P1;SDS_P2;PMS_P1;PMS_P2;Temp;Humidity;BMP_temperature;BMP_pressure;BME280_temperature;BME280_humidity;BME280_pressure;Samples;Min_cycle;Max_cycle;Signal;HPM_P1;HPM_P2
2023/05/13 00:01:37;;;;;;;5.60;3.95;;;;;;;;;;5005620;28;20158;-76
2023/05/13 00:04:06;;;;;;;5.88;4.25;;;;;;;;;;5051080;22;20052;-65
2023/05/13 00:06:33;;;;;;;6.75;4.13;;;;;;;;;;5052248;28;20523;-65
2023/05/13 00:09:00;;;;;;;6.45;4.80;;;;;;;;;;5072245;28;20488;-65
2023/05/13 00:11:27;;;;;;;6.20;4.45;;;;;;;;;;5072573;28;20048;-65
2023/05/13 00:13:54;;;;;;;6.28;4.32;;;;;;;;;;5059657;28;20132;-65
2023/05/13 00:16:26;;;;;;;5.95;4.25;;;;;;;;;;5052646;28;20524;-65
2023/05/13 00:18:53;;;;;;;6.38;4.05;;;;;;;;;;5053087;28;20048;-65
2023/05/13 00:21:22;;;;;;;7.03;4.85;;;;;;;;;;5072578;28;20493;-66
2023/05/13 00:23:49;;;;;;;6.60;4.80;;;;;;;;;;5072348;28;20505;-66
2023/05/13 00:26:15;;;;;;;7.63;5.65;;;;;;;;;;5072132;28;20056;-66
2023/05/13 00:28:42;;;;;;;6.20;4.65;;;;;;;;;;5058404;28;20107;-65
2023/05/13 00:31:10;;;;;;;7.35;4.38;;;;;;;;;;5055694;28;20113;-64
2023/05/13 00:33:37;;;;;;;9.38;5.07;;;;;;;;;;5063143;28;20104;-64
2023/05/13 00:36:04;;;;;;;6.53;4.75;;;;;;;;;;5051794;28;20132;-64
2023/05/13 00:38:32;;;;;;;5.75;4.45;;;;;;;;;;5063407;28;20049;-64
2023/05/13 00:40:59;;;;;;;7.32;4.85;;;;;;;;;;5062904;28;20045;-64
2023/05/13 00:43:26;;;;;;;6.32;4.72;;;;;;;;;;5051129;28;20521;-64
2023/05/13 00:45:53;;;;;;;7.38;4.35;;;;;;;;;;5053461;28;20048;-64
2023/05/13 00:48:20;;;;;;;7.30;5.45;;;;;;;;;;5051937;28;20053;-64
2023/05/13 00:50:47;;;;;;;7.78;5.50;;;;;;;;;;5052758;28;20048;-64
2023/05/13 00:53:15;;;;;;;8.43;5.70;;;;;;;;;;5066727;28;20520;-64
2023/05/13 00:55:47;;;;;;;8.13;5.55;;;;;;;;;;5067828;28;20062;-65
2023/05/13 00:58:16;;;;;;;8.38;6.22;;;;;;;;;;5051828;28;20540;-65
2023/05/13 01:00:51;;;;;;;7.78;5.80;;;;;;;;;;5051552;28;20049;-65
2023/05/13 01:03:26;;;;;;;8.45;5.90;;;;;;;;;;5046140;28;20056;-64
2023/05/13 01:06:03;;;;;;;10.07;6.53;;;;;;;;;;5051432;28;20044;-64
2023/05/13 01:08:54;;;;;;;8.45;6.10;;;;;;;;;;5051428;28;20049;-64
2023/05/13 01:11:27;;;;;;;8.30;5.65;;;;;;;;;;5049846;28;20154;-64
2023/05/13 01:14:06;;;;;;;9.20;6.50;;;;;;;;;;5064176;28;20106;-64
2023/05/13 01:16:39;;;;;;;8.27;5.90;;;;;;;;;;5055761;28;20049;-64
2023/05/13 01:19:17;;;;;;;8.25;6.40;;;;;;;;;;5071489;28;20131;-64
2023/05/13 01:21:52;;;;;;;8.00;6.28;;;;;;;;;;5071165;28;20147;-64
2023/05/13 01:24:18;;;;;;;8.57;6.75;;;;;;;;;;5069610;28;20052;-65
2023/05/13 01:26:45;;;;;;;10.20;7.32;;;;;;;;;;5071193;28;20049;-65
2023/05/13 01:29:13;;;;;;;9.63;6.20;;;;;;;;;;5071104;28;20048;-65
2023/05/13 01:31:41;;;;;;;8.68;6.30;;;;;;;;;;5069255;28;20521;-65
2023/05/13 01:34:10;;;;;;;9.38;6.20;;;;;;;;;;5054620;28;20136;-65
2023/05/13 01:36:37;;;;;;;10.07;7.00;;;;;;;;;;5050671;28;20045;-65
2023/05/13 01:39:06;;;;;;;9.00;6.45;;;;;;;;;;5051076;28;20049;-65
2023/05/13 01:41:33;;;;;;;9.98;6.82;;;;;;;;;;5050035;28;20106;-65
2023/05/13 01:43:59;;;;;;;9.45;6.53;;;;;;;;;;5064680;28;20180;-65
2023/05/13 01:46:26;;;;;;;11.30;7.18;;;;;;;;;;5070766;28;20498;-65
2023/05/13 01:48:53;;;;;;;11.10;6.93;;;;;;;;;;5053284;28;20482;-67
2023/05/13 01:51:20;;;;;;;11.13;7.47;;;;;;;;;;5049838;28;20091;-63
2023/05/13 01:53:47;;;;;;;9.70;7.10;;;;;;;;;;5050126;28;20397;-63
2023/05/13 01:56:15;;;;;;;10.00;6.97;;;;;;;;;;5050082;28;20501;-63
2023/05/13 01:58:42;;;;;;;10.38;7.53;;;;;;;;;;5064546;28;20052;-65
2023/05/13 02:01:08;;;;;;;9.23;7.07;;;;;;;;;;5069145;28;20040;-64
2023/05/13 02:03:36;;;;;;;11.20;7.55;;;;;;;;;;5053162;28;20056;-64
2023/05/13 02:06:03;;;;;;;10.20;7.45;;;;;;;;;;5050373;28;20075;-64
2023/05/13 02:08:29;;;;;;;11.13;7.82;;;;;;;;;;5061925;28;20040;-64
2023/05/13 02:10:56;;;;;;;10.52;7.68;;;;;;;;;;5070107;28;20052;-64
2023/05/13 02:13:25;;;;;;;12.00;8.10;;;;;;;;;;5070156;28;20053;-64
2023/05/13 02:15:52;;;;;;;11.07;8.20;;;;;;;;;;5069977;28;20516;-64
2023/05/13 02:18:19;;;;;;;12.00;8.13;;;;;;;;;;5059614;28;20044;-64
2023/05/13 02:20:46;;;;;;;13.90;9.55;;;;;;;;;;5049376;28;20471;-65
2023/05/13 02:23:13;;;;;;;12.05;8.43;;;;;;;;;;5049530;28;20061;-64
2023/05/13 02:25:41;;;;;;;12.80;8.60;;;;;;;;;;5050389;28;20139;-65
2023/05/13 02:28:08;;;;;;;11.10;7.88;;;;;;;;;;5058154;28;20052;-64
2023/05/13 02:30:36;;;;;;;11.80;8.07;;;;;;;;;;5069747;28;20105;-64
2023/05/13 02:33:03;;;;;;;12.07;8.70;;;;;;;;;;5052795;28;20551;-64
2023/05/13 02:35:29;;;;;;;13.20;8.10;;;;;;;;;;5049913;28;20118;-64
2023/05/13 02:37:56;;;;;;;12.75;8.40;;;;;;;;;;5056799;28;20458;-64
2023/05/13 02:40:23;;;;;;;11.38;8.77;;;;;;;;;;5070197;28;20139;-64
2023/05/13 02:42:50;;;;;;;13.52;9.00;;;;;;;;;;5069491;28;20059;-64
2023/05/13 02:45:17;;;;;;;13.00;8.73;;;;;;;;;;5069714;28;20467;-64
2023/05/13 02:47:45;;;;;;;12.43;8.68;;;;;;;;;;5057203;28;20394;-64
2023/05/13 02:50:12;;;;;;;10.77;7.70;;;;;;;;;;5069861;28;20048;-64
2023/05/13 02:52:39;;;;;;;12.65;7.65;;;;;;;;;;5061374;28;20118;-64
2023/05/13 02:55:07;;;;;;;11.70;8.35;;;;;;;;;;5049542;28;20460;-64
2023/05/13 02:57:34;;;;;;;12.00;8.07;;;;;;;;;;5051850;28;20048;-64
2023/05/13 03:00:01;;;;;;;11.90;8.52;;;;;;;;;;5069474;28;20105;-64
2023/05/13 03:02:28;;;;;;;12.18;8.88;;;;;;;;;;5050226;28;20050;-64
2023/05/13 03:04:56;;;;;;;13.05;8.80;;;;;;;;;;5029453;28;20053;-64
2023/05/13 03:07:23;;;;;;;10.65;7.90;;;;;;;;;;5032712;28;21081;-64
2023/05/13 03:09:50;;;;;;;10.13;7.55;;;;;;;;;;5069360;28;20048;-64
2023/05/13 03:12:17;;;;;;;11.73;7.97;;;;;;;;;;5068664;28;20059;-64
2023/05/13 03:14:44;;;;;;;12.57;8.00;;;;;;;;;;5069028;28;20052;-64
2023/05/13 03:17:11;;;;;;;11.52;7.63;;;;;;;;;;5069095;28;20466;-64
2023/05/13 03:19:40;;;;;;;11.70;8.38;;;;;;;;;;5049389;28;20053;-64
2023/05/13 03:22:08;;;;;;;12.43;8.50;;;;;;;;;;5049087;28;20081;-64
2023/05/13 03:24:35;;;;;;;12.40;8.10;;;;;;;;;;5048942;28;20414;-65
2023/05/13 03:27:02;;;;;;;11.90;8.70;;;;;;;;;;5049327;28;20141;-65
2023/05/13 03:29:28;;;;;;;11.25;8.32;;;;;;;;;;5067373;28;20127;-64
2023/05/13 03:31:55;;;;;;;11.80;7.40;;;;;;;;;;5061190;28;20045;-64
2023/05/13 03:34:22;;;;;;;10.98;7.63;;;;;;;;;;5049304;28;20041;-64
2023/05/13 03:36:49;;;;;;;12.10;8.35;;;;;;;;;;5049124;28;20183;-64
2023/05/13 03:39:17;;;;;;;13.00;9.23;;;;;;;;;;5065296;28;20053;-64
2023/05/13 03:41:44;;;;;;;12.32;8.13;;;;;;;;;;5069157;28;20056;-65
2023/05/13 03:44:11;;;;;;;12.45;9.45;;;;;;;;;;5068839;28;20084;-65
2023/05/13 03:46:38;;;;;;;11.57;8.05;;;;;;;;;;5069407;28;20562;-65
2023/05/13 03:49:04;;;;;;;10.88;8.57;;;;;;;;;;5068460;28;20136;-64
2023/05/13 03:51:33;;;;;;;11.65;8.80;;;;;;;;;;5069116;28;20056;-65
2023/05/13 03:53:59;;;;;;;11.38;7.60;;;;;;;;;;5068931;28;20386;-65
2023/05/13 03:56:28;;;;;;;11.68;8.40;;;;;;;;;;5069046;28;20084;-65
2023/05/13 03:58:54;;;;;;;12.82;8.95;;;;;;;;;;5055701;28;20045;-65
2023/05/13 04:01:21;;;;;;;13.30;8.43;;;;;;;;;;5049453;28;20413;-65
2023/05/13 04:03:49;;;;;;;13.65;9.43;;;;;;;;;;5038610;28;20056;-65
2023/05/13 04:06:15;;;;;;;14.13;9.75;;;;;;;;;;5042724;28;20115;-65
2023/05/13 04:08:42;;;;;;;12.85;9.40;;;;;;;;;;5028791;28;20165;-65
2023/05/13 04:11:09;;;;;;;15.18;9.90;;;;;;;;;;5028952;28;20149;-65
2023/05/13 04:13:37;;;;;;;15.68;10.50;;;;;;;;;;5029382;28;20514;-65
2023/05/13 04:16:04;;;;;;;14.10;9.57;;;;;;;;;;5029452;28;20145;-65
2023/05/13 04:18:33;;;;;;;13.82;10.15;;;;;;;;;;5030612;28;20068;-64
2023/05/13 04:21:00;;;;;;;15.20;10.50;;;;;;;;;;5032580;28;20050;-64
2023/05/13 04:23:26;;;;;;;13.73;9.75;;;;;;;;;;5032662;28;20053;-64
2023/05/13 04:25:53;;;;;;;12.98;9.48;;;;;;;;;;5032415;28;20560;-64
2023/05/13 04:28:20;;;;;;;15.02;10.25;;;;;;;;;;5033264;28;20537;-65
2023/05/13 04:30:48;;;;;;;13.82;10.18;;;;;;;;;;5032337;28;20046;-65
2023/05/13 04:33:15;;;;;;;15.90;11.23;;;;;;;;;;5045255;28;20506;-65
2023/05/13 04:35:42;;;;;;;16.60;11.75;;;;;;;;;;5032219;28;20054;-64
2023/05/13 04:38:09;;;;;;;14.40;10.57;;;;;;;;;;5032341;28;20075;-65
2023/05/13 04:40:36;;;;;;;16.17;11.25;;;;;;;;;;5032004;28;20050;-64
2023/05/13 04:43:02;;;;;;;19.23;12.23;;;;;;;;;;5032378;28;20088;-65
2023/05/13 04:45:30;;;;;;;14.82;11.18;;;;;;;;;;5032193;28;20471;-65
2023/05/13 04:47:58;;;;;;;16.67;11.13;;;;;;;;;;5042686;28;20147;-65
2023/05/13 04:50:25;;;;;;;15.45;10.65;;;;;;;;;;5051486;28;20076;-65
2023/05/13 04:52:53;;;;;;;15.90;11.35;;;;;;;;;;5051578;28;20084;-65
2023/05/13 04:55:20;;;;;;;15.50;10.23;;;;;;;;;;5051573;28;20116;-64
2023/05/13 04:57:47;;;;;;;16.70;10.52;;;;;;;;;;5049648;28;20061;-64
2023/05/13 05:00:15;;;;;;;17.30;11.32;;;;;;;;;;5051276;28;20053;-65
2023/05/13 05:02:41;;;;;;;16.55;10.50;;;;;;;;;;5051575;28;20052;-64
2023/05/13 05:05:10;;;;;;;14.95;10.25;;;;;;;;;;5062022;28;20117;-64
2023/05/13 05:07:39;;;;;;;16.77;10.93;;;;;;;;;;5071822;28;20451;-65
2023/05/13 05:10:07;;;;;;;13.25;9.88;;;;;;;;;;5071304;28;20088;-63
2023/05/13 05:12:34;;;;;;;13.65;9.63;;;;;;;;;;5071688;28;20498;-64
2023/05/13 05:15:00;;;;;;;14.63;9.88;;;;;;;;;;5071430;28;20098;-64
2023/05/13 05:17:31;;;;;;;13.85;9.63;;;;;;;;;;5071212;28;20048;-64
2023/05/13 05:19:58;;;;;;;16.40;10.35;;;;;;;;;;5071849;28;20159;-65
2023/05/13 05:22:26;;;;;;;12.50;9.85;;;;;;;;;;5071669;28;20470;-64
2023/05/13 05:24:54;;;;;;;14.10;9.48;;;;;;;;;;5072331;28;20052;-64
2023/05/13 05:27:21;;;;;;;12.70;8.90;;;;;;;;;;5071777;28;20048;-64
2023/05/13 05:29:48;;;;;;;13.73;9.30;;;;;;;;;;5071711;28;20139;-65
2023/05/13 05:32:14;;;;;;;12.02;8.50;;;;;;;;;;5071391;28;20088;-63
2023/05/13 05:34:41;;;;;;;13.90;9.40;;;;;;;;;;5071096;28;20109;-64
2023/05/13 05:37:08;;;;;;;12.75;9.07;;;;;;;;;;5071093;28;20063;-64
2023/05/13 05:39:36;;;;;;;14.32;9.10;;;;;;;;;;5071224;28;20098;-65
2023/05/13 05:42:03;;;;;;;12.48;9.18;;;;;;;;;;5071577;28;20057;-63
2023/05/13 05:44:29;;;;;;;12.63;8.07;;;;;;;;;;5071285;28;20040;-65
2023/05/13 05:46:56;;;;;;;12.38;8.75;;;;;;;;;;5070918;28;20098;-64
2023/05/13 05:49:23;;;;;;;12.25;7.80;;;;;;;;;;5071064;28;20075;-64
2023/05/13 05:51:50;;;;;;;13.27;8.00;;;;;;;;;;5071002;28;20048;-64
2023/05/13 05:54:17;;;;;;;12.13;7.45;;;;;;;;;;5070794;28;20431;-64
2023/05/13 05:56:45;;;;;;;14.15;8.23;;;;;;;;;;5070829;28;20048;-64
2023/05/13 05:59:11;;;;;;;11.10;6.97;;;;;;;;;;5070627;28;20405;-64
2023/05/13 06:01:38;;;;;;;10.82;7.60;;;;;;;;;;5070814;28;20485;-64
2023/05/13 06:04:05;;;;;;;10.20;6.72;;;;;;;;;;5070461;28;20098;-64
2023/05/13 06:06:32;;;;;;;12.50;6.70;;;;;;;;;;5070521;28;20049;-64
2023/05/13 06:08:59;;;;;;;10.75;6.68;;;;;;;;;;5070709;28;20136;-64
2023/05/13 06:11:26;;;;;;;11.73;7.50;;;;;;;;;;5064953;28;20471;-66
2023/05/13 06:13:56;;;;;;;10.80;6.60;;;;;;;;;;5070022;28;20094;-65
2023/05/13 06:16:23;;;;;;;9.52;6.45;;;;;;;;;;5069599;28;20052;-64
2023/05/13 06:18:49;;;;;;;10.93;6.95;;;;;;;;;;5070251;28;20125;-64
2023/05/13 06:21:16;;;;;;;11.30;5.78;;;;;;;;;;5069166;28;20050;-64
2023/05/13 06:23:43;;;;;;;9.82;6.10;;;;;;;;;;5069393;28;20048;-64
2023/05/13 06:26:10;;;;;;;8.55;5.50;;;;;;;;;;5070336;28;20056;-64
2023/05/13 06:28:36;;;;;;;8.93;5.07;;;;;;;;;;5069951;28;20086;-65
2023/05/13 06:31:05;;;;;;;8.80;5.53;;;;;;;;;;5053653;28;20048;-65
2023/05/13 06:33:32;;;;;;;9.82;5.55;;;;;;;;;;5069023;28;20473;-64
2023/05/13 06:35:59;;;;;;;9.45;5.85;;;;;;;;;;5069505;28;20147;-65
2023/05/13 06:38:25;;;;;;;8.20;5.55;;;;;;;;;;5069922;28;20056;-65
2023/05/13 06:40:52;;;;;;;9.63;7.00;;;;;;;;;;5069295;28;20090;-65
2023/05/13 06:43:19;;;;;;;9.60;6.25;;;;;;;;;;5054850;28;20551;-65
2023/05/13 06:45:46;;;;;;;11.38;6.57;;;;;;;;;;5049428;28;20057;-65
2023/05/13 06:48:15;;;;;;;10.70;7.00;;;;;;;;;;5050607;28;20041;-65
2023/05/13 06:50:42;;;;;;;10.77;6.72;;;;;;;;;;5049524;28;20068;-65
2023/05/13 06:53:10;;;;;;;10.15;7.15;;;;;;;;;;5056863;28;20103;-65
2023/05/13 06:55:40;;;;;;;11.18;6.68;;;;;;;;;;5048664;28;20053;-66
2023/05/13 06:58:07;;;;;;;10.85;6.78;;;;;;;;;;5049730;28;20600;-65
2023/05/13 07:00:36;;;;;;;11.40;7.65;;;;;;;;;;5060726;28;20094;-66
2023/05/13 07:03:03;;;;;;;11.05;6.50;;;;;;;;;;5057164;28;20080;-66
2023/05/13 07:05:31;;;;;;;12.30;7.47;;;;;;;;;;5049276;28;20118;-65
2023/05/13 07:07:58;;;;;;;11.50;7.20;;;;;;;;;;5049302;28;20190;-65
2023/05/13 07:10:25;;;;;;;11.23;7.20;;;;;;;;;;5061624;28;20110;-66
2023/05/13 07:12:52;;;;;;;15.40;7.20;;;;;;;;;;5050359;28;20110;-65
2023/05/13 07:15:19;;;;;;;11.55;7.57;;;;;;;;;;5040282;28;20133;-64
2023/05/13 07:17:46;;;;;;;12.27;8.20;;;;;;;;;;5029347;28;20057;-64
2023/05/13 07:20:12;;;;;;;11.18;7.20;;;;;;;;;;5029027;28;20420;-64
2023/05/13 07:22:40;;;;;;;12.45;7.95;;;;;;;;;;5029031;28;20107;-64
2023/05/13 07:25:08;;;;;;;11.52;7.93;;;;;;;;;;5029480;28;20470;-64
2023/05/13 07:27:35;;;;;;;10.32;6.97;;;;;;;;;;5039577;28;20049;-65
2023/05/13 07:30:01;;;;;;;11.38;7.50;;;;;;;;;;5048954;28;20048;-65
2023/05/13 07:32:29;;;;;;;11.82;7.05;;;;;;;;;;5049031;28;20122;-65
2023/05/13 07:34:56;;;;;;;11.60;6.93;;;;;;;;;;5054127;28;20110;-64
2023/05/13 07:37:24;;;;;;;13.20;8.15;;;;;;;;;;5061883;28;20098;-65
2023/05/13 07:39:52;;;;;;;12.90;7.78;;;;;;;;;;5053572;28;20457;-65
2023/05/13 07:42:19;;;;;;;12.02;7.72;;;;;;;;;;5049080;28;20401;-65
2023/05/13 07:44:45;;;;;;;11.07;7.78;;;;;;;;;;5049245;28;20060;-65
2023/05/13 07:47:12;;;;;;;11.18;7.65;;;;;;;;;;5049154;28;20084;-65
2023/05/13 07:49:39;;;;;;;10.25;6.97;;;;;;;;;;5048964;28;20098;-65
2023/05/13 07:52:06;;;;;;;10.98;7.00;;;;;;;;;;5065805;28;20106;-65
2023/05/13 07:54:33;;;;;;;10.63;6.88;;;;;;;;;;5072560;28;20433;-65
2023/05/13 07:57:02;;;;;;;12.65;7.47;;;;;;;;;;5072309;28;20051;-65
2023/05/13 07:59:29;;;;;;;11.48;7.47;;;;;;;;;;5069659;28;20048;-65
2023/05/13 08:01:56;;;;;;;10.90;7.07;;;;;;;;;;5050336;28;20041;-65
2023/05/13 08:04:23;;;;;;;11.57;7.45;;;;;;;;;;5052838;28;20102;-65
2023/05/13 08:06:50;;;;;;;11.18;7.20;;;;;;;;;;5053336;28;20437;-64
2023/05/13 08:09:17;;;;;;;10.75;7.25;;;;;;;;;;5053425;28;20110;-65
2023/05/13 08:11:44;;;;;;;9.30;6.28;;;;;;;;;;5052504;28;20095;-65
2023/05/13 08:14:12;;;;;;;10.20;6.07;;;;;;;;;;5053460;28;20056;-65
2023/05/13 08:16:38;;;;;;;9.55;5.90;;;;;;;;;;5052262;28;20696;-65
2023/05/13 08:19:05;;;;;;;8.90;6.18;;;;;;;;;;5053689;28;20048;-65
2023/05/13 08:21:32;;;;;;;10.45;6.57;;;;;;;;;;5052545;28;20053;-65
2023/05/13 08:23:59;;;;;;;10.73;6.75;;;;;;;;;;5052531;28;20052;-65
2023/05/13 08:26:26;;;;;;;10.82;6.97;;;;;;;;;;5052014;28;20433;-64
2023/05/13 08:28:52;;;;;;;10.98;7.13;;;;;;;;;;5051667;28;20053;-65
2023/05/13 08:31:23;;;;;;;11.18;6.72;;;;;;;;;;5064610;28;20102;-64
2023/05/13 08:33:50;;;;;;;11.30;7.25;;;;;;;;;;5052510;28;20057;-65
2023/05/13 08:36:17;;;;;;;10.70;6.65;;;;;;;;;;5062593;28;20045;-65
2023/05/13 08:38:44;;;;;;;10.30;6.72;;;;;;;;;;5056575;28;20060;-65
2023/05/13 08:41:13;;;;;;;9.50;6.50;;;;;;;;;;5061087;28;20049;-65
2023/05/13 08:43:41;;;;;;;8.85;6.15;;;;;;;;;;5054362;28;20514;-65
2023/05/13 08:46:11;;;;;;;9.70;6.60;;;;;;;;;;5065205;28;20110;-65
2023/05/13 08:48:40;;;;;;;12.00;6.03;;;;;;;;;;5072520;28;20497;-65
2023/05/13 08:51:08;;;;;;;7.80;5.30;;;;;;;;;;5071822;28;20462;-65
2023/05/13 08:53:36;;;;;;;9.45;5.80;;;;;;;;;;5071940;28;20049;-66
2023/05/13 08:56:04;;;;;;;8.63;5.32;;;;;;;;;;5071801;28;20049;-65
2023/05/13 08:58:31;;;;;;;9.15;6.28;;;;;;;;;;5055639;28;20053;-65
2023/05/13 09:00:58;;;;;;;8.00;5.93;;;;;;;;;;5067144;28;20055;-65
2023/05/13 09:03:28;;;;;;;8.98;5.72;;;;;;;;;;5055834;28;20060;-65
2023/05/13 09:05:56;;;;;;;9.70;5.95;;;;;;;;;;5051970;28;20053;-64
2023/05/13 09:08:23;;;;;;;9.27;6.45;;;;;;;;;;5052254;28;20132;-66
2023/05/13 09:10:50;;;;;;;9.50;6.22;;;;;;;;;;5058431;28;20425;-69
2023/05/13 09:13:18;;;;;;;11.45;6.38;;;;;;;;;;5056528;28;20048;-68
2023/05/13 09:15:45;;;;;;;8.77;5.85;;;;;;;;;;5051720;28;20448;-69
2023/05/13 09:18:12;;;;;;;11.73;8.02;;;;;;;;;;5063316;28;20060;-64
2023/05/13 09:20:39;;;;;;;10.18;6.80;;;;;;;;;;5034191;28;20132;-64
2023/05/13 09:23:09;;;;;;;9.68;6.15;;;;;;;;;;5063409;28;20045;-64
2023/05/13 09:25:39;;;;;;;10.27;6.82;;;;;;;;;;5065051;28;20106;-65
2023/05/13 09:28:07;;;;;;;7.93;5.50;;;;;;;;;;5071889;28;20074;-64
2023/05/13 09:30:35;;;;;;;8.13;5.88;;;;;;;;;;5069315;28;20052;-64
2023/05/13 09:33:10;;;;;;;7.68;4.65;;;;;;;;;;5058400;28;20053;-64
2023/05/13 09:35:39;;;;;;;8.95;5.90;;;;;;;;;;5066411;28;20056;-64
2023/05/13 09:38:15;;;;;;;8.70;5.47;;;;;;;;;;5053308;28;20536;-64
2023/05/13 09:40:49;;;;;;;8.07;6.00;;;;;;;;;;5070886;28;20059;-64
2023/05/13 09:43:17;;;;;;;8.40;5.70;;;;;;;;;;5062739;28;20045;-64
2023/05/13 09:45:44;;;;;;;8.27;5.72;;;;;;;;;;5055627;28;20052;-64
2023/05/13 09:48:11;;;;;;;9.48;6.25;;;;;;;;;;5070211;28;20555;-65
2023/05/13 09:50:47;;;;;;;11.20;5.30;;;;;;;;;;5070924;28;20508;-64
2023/05/13 09:53:15;;;;;;;9.18;5.95;;;;;;;;;;5070627;28;20044;-64
2023/05/13 09:55:46;;;;;;;9.23;5.78;;;;;;;;;;5070779;28;20106;-65
2023/05/13 09:58:13;;;;;;;8.23;5.80;;;;;;;;;;5070890;28;20128;-65
2023/05/13 10:00:41;;;;;;;7.65;5.18;;;;;;;;;;5070432;28;20099;-64
2023/05/13 10:03:08;;;;;;;7.88;5.38;;;;;;;;;;5057227;28;20063;-65
2023/05/13 10:05:35;;;;;;;7.70;5.80;;;;;;;;;;5043659;28;20399;-64
2023/05/13 10:08:03;;;;;;;7.72;4.70;;;;;;;;;;5050476;28;20053;-64
2023/05/13 10:10:34;;;;;;;8.15;5.63;;;;;;;;;;5050251;28;20148;-64
2023/05/13 10:13:06;;;;;;;8.18;5.07;;;;;;;;;;5050507;28;20433;-64
2023/05/13 10:15:33;;;;;;;6.90;4.78;;;;;;;;;;5049821;28;20144;-64
2023/05/13 10:18:01;;;;;;;7.50;4.63;;;;;;;;;;5050544;28;20049;-64
2023/05/13 10:20:28;;;;;;;7.75;4.93;;;;;;;;;;5050933;28;20114;-64
2023/05/13 10:22:55;;;;;;;7.20;4.60;;;;;;;;;;5050153;28;20111;-64
2023/05/13 10:25:23;;;;;;;7.60;4.70;;;;;;;;;;5050092;28;20056;-64
2023/05/13 10:27:54;;;;;;;7.57;4.22;;;;;;;;;;5050055;28;20048;-64
2023/05/13 10:30:25;;;;;;;;;;;;;;;;;;5050385;28;20094;-64
2023/05/13 10:32:52;;;;;;;7.35;4.30;;;;;;;;;;5050061;28;20358;-66
2023/05/13 10:35:20;;;;;;;8.50;5.30;;;;;;;;;;5050079;28;20536;-65
2023/05/13 10:38:02;;;;;;;7.85;4.38;;;;;;;;;;5049769;28;20194;-64
2023/05/13 10:40:53;;;;;;;6.35;3.80;;;;;;;;;;5049978;28;20099;-64
2023/05/13 10:43:21;;;;;;;;;;;;;;;;;;5047902;28;20110;-64
2023/05/13 10:45:49;;;;;;;5.72;3.92;;;;;;;;;;5050261;28;19924;-64
2023/05/13 10:48:18;;;;;;;6.43;4.53;;;;;;;;;;5049961;28;20494;-64
2023/05/13 10:50:53;;;;;;;7.03;3.92;;;;;;;;;;5050081;28;20052;-64
2023/05/13 10:53:23;;;;;;;6.20;4.30;;;;;;;;;;5050043;28;20052;-64
2023/05/13 10:55:54;;;;;;;6.28;3.83;;;;;;;;;;5050215;28;20459;-64
2023/05/13 10:58:29;;;;;;;5.95;4.18;;;;;;;;;;5049749;28;20423;-64
2023/05/13 11:01:16;;;;;;;6.10;4.60;;;;;;;;;;5049994;28;20052;-65
2023/05/13 11:03:52;;;;;;;6.75;4.40;;;;;;;;;;5049803;28;20107;-65
2023/05/13 11:06:21;;;;;;;6.80;4.88;;;;;;;;;;5049529;28;20055;-65
2023/05/13 11:08:49;;;;;;;5.95;4.00;;;;;;;;;;5049731;28;20601;-65
2023/05/13 11:11:31;;;;;;;5.93;4.50;;;;;;;;;;5049513;28;20484;-66
2023/05/13 11:14:08;;;;;;;5.63;4.03;;;;;;;;;;5049577;28;20048;-64
2023/05/13 11:16:36;;;;;;;6.30;4.20;;;;;;;;;;5050167;28;20056;-65
2023/05/13 11:19:03;;;;;;;5.88;4.20;;;;;;;;;;5051555;28;20460;-64
2023/05/13 11:21:31;;;;;;;5.50;4.00;;;;;;;;;;5050021;28;20526;-65
2023/05/13 11:24:02;;;;;;;6.82;4.55;;;;;;;;;;5049668;28;20394;-65
2023/05/13 11:26:45;;;;;;;5.40;3.70;;;;;;;;;;5050433;28;20056;-65
2023/05/13 11:29:13;;;;;;;5.93;4.20;;;;;;;;;;5053981;28;20049;-65
2023/05/13 11:31:47;;;;;;;5.78;4.40;;;;;;;;;;5053837;28;20456;-64
2023/05/13 11:34:15;;;;;;;5.20;3.80;;;;;;;;;;5054061;28;20050;-63
2023/05/13 11:36:44;;;;;;;5.40;3.78;;;;;;;;;;5049864;28;20056;-65
2023/05/13 11:39:13;;;;;;;4.72;3.15;;;;;;;;;;5040193;28;20048;-63
2023/05/13 11:41:41;;;;;;;5.30;3.55;;;;;;;;;;5063742;28;20563;-64
2023/05/13 11:44:09;;;;;;;4.90;3.25;;;;;;;;;;5053099;28;20053;-64
2023/05/13 11:46:37;;;;;;;5.15;3.50;;;;;;;;;;5036884;28;20342;-65
2023/05/13 11:49:04;;;;;;;4.47;3.20;;;;;;;;;;5033902;28;20053;-64
2023/05/13 11:51:34;;;;;;;4.22;2.65;;;;;;;;;;5032828;28;20054;-64
2023/05/13 11:54:03;;;;;;;5.13;3.15;;;;;;;;;;5033104;28;20049;-64
2023/05/13 11:56:30;;;;;;;4.15;3.10;;;;;;;;;;5033192;28;20085;-64
2023/05/13 11:59:13;;;;;;;5.03;3.40;;;;;;;;;;5051167;28;20041;-63
2023/05/13 12:01:41;;;;;;;4.63;3.58;;;;;;;;;;5054438;28;20060;-65
2023/05/13 12:04:08;;;;;;;4.75;3.28;;;;;;;;;;5057182;28;20315;-64
2023/05/13 12:06:35;;;;;;;4.68;3.33;;;;;;;;;;5070447;28;20077;-64
2023/05/13 12:09:06;;;;;;;4.03;2.85;;;;;;;;;;5053272;28;20540;-65
2023/05/13 12:11:33;;;;;;;4.85;3.15;;;;;;;;;;5052578;28;20049;-64
2023/05/13 12:14:00;;;;;;;4.65;3.13;;;;;;;;;;5052626;28;20452;-64
2023/05/13 12:16:27;;;;;;;5.40;3.55;;;;;;;;;;5072045;28;20048;-63
2023/05/13 12:19:04;;;;;;;5.35;3.95;;;;;;;;;;5059598;28;20626;-64
2023/05/13 12:21:34;;;;;;;4.90;3.28;;;;;;;;;;5054042;28;20095;-63
2023/05/13 12:24:16;;;;;;;4.50;3.08;;;;;;;;;;5052170;28;20738;-64
2023/05/13 12:26:43;;;;;;;4.43;2.97;;;;;;;;;;5052972;28;20502;-65
2023/05/13 12:29:10;;;;;;;4.15;2.88;;;;;;;;;;5052354;28;20413;-63
2023/05/13 12:31:37;;;;;;;4.45;3.60;;;;;;;;;;5052813;28;20049;-65
2023/05/13 12:34:06;;;;;;;4.20;3.17;;;;;;;;;;5052553;28;20053;-64
2023/05/13 12:36:37;;;;;;;3.83;2.67;;;;;;;;;;5052190;28;20498;-64
2023/05/13 12:39:05;;;;;;;3.83;2.58;;;;;;;;;;5051610;28;20085;-64
2023/05/13 12:41:34;;;;;;;4.28;3.00;;;;;;;;;;5052073;28;20107;-64
2023/05/13 12:44:02;;;;;;;5.38;3.50;;;;;;;;;;5051999;28;20052;-65
2023/05/13 12:46:29;;;;;;;4.65;3.13;;;;;;;;;;5052050;28;20064;-63
2023/05/13 12:48:57;;;;;;;5.60;4.05;;;;;;;;;;5052286;28;20053;-63
2023/05/13 12:51:26;;;;;;;5.55;4.07;;;;;;;;;;5051956;28;20111;-63
2023/05/13 12:53:54;;;;;;;4.93;3.08;;;;;;;;;;5052216;28;20044;-63
2023/05/13 12:56:22;;;;;;;4.22;3.17;;;;;;;;;;5052081;28;20118;-64
2023/05/13 12:58:49;;;;;;;4.32;3.00;;;;;;;;;;5050936;28;20095;-64
2023/05/13 13:01:16;;;;;;;4.13;2.92;;;;;;;;;;5055040;28;20111;-64
2023/05/13 13:03:44;;;;;;;4.10;3.13;;;;;;;;;;5053296;28;20091;-64
2023/05/13 13:06:11;;;;;;;4.72;3.25;;;;;;;;;;5064269;28;20045;-64
2023/05/13 13:08:39;;;;;;;4.55;3.50;;;;;;;;;;5062493;28;20048;-63
2023/05/13 13:11:06;;;;;;;5.05;3.38;;;;;;;;;;5048873;28;20060;-63
2023/05/13 13:13:33;;;;;;;4.30;2.90;;;;;;;;;;5051591;28;20131;-64
2023/05/13 13:16:01;;;;;;;4.53;3.20;;;;;;;;;;5055799;28;20041;-63
2023/05/13 13:18:28;;;;;;;4.05;2.70;;;;;;;;;;5051581;28;20052;-63
2023/05/13 13:20:55;;;;;;;4.50;3.13;;;;;;;;;;5052035;28;20072;-64
2023/05/13 13:23:21;;;;;;;4.57;3.63;;;;;;;;;;5051372;28;20056;-64
2023/05/13 13:25:49;;;;;;;4.63;3.00;;;;;;;;;;5053057;28;20049;-64
2023/05/13 13:28:16;;;;;;;5.20;3.47;;;;;;;;;;5050737;28;20053;-64
2023/05/13 13:30:45;;;;;;;4.38;3.40;;;;;;;;;;5061066;28;20095;-63
2023/05/13 13:33:13;;;;;;;4.68;3.58;;;;;;;;;;5032320;28;20057;-64
2023/05/13 13:35:40;;;;;;;4.25;3.28;;;;;;;;;;5062906;28;20131;-64
2023/05/13 13:38:07;;;;;;;5.03;3.10;;;;;;;;;;5051344;28;20076;-64
2023/05/13 13:40:34;;;;;;;5.20;4.50;;;;;;;;;;5039707;28;20049;-65
2023/05/13 13:43:03;;;;;;;4.72;3.42;;;;;;;;;;5049068;28;20067;-67
2023/05/13 13:45:30;;;;;;;4.50;3.28;;;;;;;;;;5051476;28;20414;-67
2023/05/13 13:47:57;;;;;;;4.47;3.35;;;;;;;;;;5051000;28;20220;-65
2023/05/13 13:50:24;;;;;;;4.13;2.95;;;;;;;;;;5050031;28;20102;-65
2023/05/13 13:52:51;;;;;;;4.63;3.45;;;;;;;;;;5050692;28;20356;-65
2023/05/13 13:55:18;;;;;;;4.07;3.10;;;;;;;;;;5050322;28;20510;-64
2023/05/13 13:57:45;;;;;;;3.78;2.83;;;;;;;;;;5050151;28;20535;-64
2023/05/13 14:00:15;;;;;;;4.50;2.97;;;;;;;;;;5050644;28;20072;-64
2023/05/13 14:02:44;;;;;;;4.07;3.17;;;;;;;;;;5050461;28;20045;-64
2023/05/13 14:05:11;;;;;;;4.63;3.15;;;;;;;;;;5050347;28;20110;-64
2023/05/13 14:07:38;;;;;;;3.88;2.85;;;;;;;;;;5050503;28;20102;-64
2023/05/13 14:10:06;;;;;;;3.88;2.78;;;;;;;;;;5050811;28;20518;-65
2023/05/13 14:12:34;;;;;;;4.40;3.13;;;;;;;;;;5050463;28;20533;-64
2023/05/13 14:15:01;;;;;;;3.58;2.72;;;;;;;;;;5050969;28;20521;-64
2023/05/13 14:17:29;;;;;;;4.38;3.03;;;;;;;;;;5050217;28;20128;-65
2023/05/13 14:19:56;;;;;;;3.28;2.55;;;;;;;;;;5050389;28;20049;-65
2023/05/13 14:22:23;;;;;;;4.55;3.40;;;;;;;;;;5050041;28;20091;-65
2023/05/13 14:24:50;;;;;;;4.45;2.63;;;;;;;;;;5050517;28;20490;-65
2023/05/13 14:27:17;;;;;;;3.97;3.00;;;;;;;;;;5050052;28;20067;-65
2023/05/13 14:29:46;;;;;;;5.07;2.80;;;;;;;;;;5050211;28;20148;-65
2023/05/13 14:32:12;;;;;;;3.45;2.60;;;;;;;;;;5050033;28;20045;-65
2023/05/13 14:34:40;;;;;;;3.67;2.70;;;;;;;;;;5051025;28;20485;-65
2023/05/13 14:37:07;;;;;;;3.58;2.72;;;;;;;;;;5050504;28;20624;-65
2023/05/13 14:39:34;;;;;;;4.20;3.20;;;;;;;;;;5050354;28;20048;-64
2023/05/13 14:42:01;;;;;;;3.75;2.65;;;;;;;;;;5050153;28;20549;-64